createdAt,value
2019-03-15T00:04:20.379Z,5.95
2019-03-15T00:09:45.786Z,5.85
2019-03-15T00:15:09.644Z,5.83
2019-03-15T00:26:22.198Z,5.99
2019-03-15T00:31:47.890Z,5.86
2019-03-15T00:37:12.299Z,5.74
2019-03-15T00:42:37.139Z,5.79
2019-03-15T00:48:01.507Z,5.83
2019-03-15T00:53:25.767Z,5.72
2019-03-15T00:58:49.200Z,5.93
2019-03-15T01:04:14.110Z,5.81
2019-03-15T01:09:37.978Z,5.83
2019-03-15T01:15:02.553Z,5.90
2019-03-15T01:20:27.057Z,5.94
2019-03-15T01:25:51.160Z,5.96
2019-03-15T01:31:14.742Z,6.10
2019-03-15T01:36:38.644Z,6.13
2019-03-15T01:42:03.119Z,6.08
2019-03-15T01:47:26.905Z,6.06
2019-03-15T01:52:50.686Z,6.01
2019-03-15T01:58:15.346Z,6.04
2019-03-15T02:03:39.559Z,5.97
2019-03-15T02:09:05.357Z,6.05
2019-03-15T02:14:29.409Z,5.95
2019-03-15T02:19:54.130Z,5.89
2019-03-15T02:25:18.727Z,5.73
2019-03-15T02:30:42.606Z,5.72
2019-03-15T02:36:07.612Z,5.83
2019-03-15T02:41:32.379Z,5.91
2019-03-15T02:46:57.595Z,5.89
2019-03-15T02:52:22.025Z,5.82
2019-03-15T02:57:46.719Z,5.83
2019-03-15T03:03:11.217Z,5.84
2019-03-15T03:08:35.134Z,5.88
2019-03-15T03:13:59.133Z,5.96
2019-03-15T03:19:24.463Z,6.07
2019-03-15T03:24:48.651Z,6.20
2019-03-15T03:30:16.649Z,6.25
2019-03-15T03:35:39.791Z,6.31
2019-03-15T03:41:04.551Z,6.04
2019-03-15T03:46:28.855Z,5.76
2019-03-15T03:51:54.510Z,5.57
2019-03-15T03:57:18.480Z,5.44
2019-03-15T04:02:42.431Z,5.39
2019-03-15T04:08:07.592Z,5.36
2019-03-15T04:13:32.366Z,5.34
2019-03-15T04:18:56.244Z,5.50
2019-03-15T04:24:20.939Z,5.54
2019-03-15T04:29:45.594Z,5.66
2019-03-15T04:35:09.688Z,5.94
2019-03-15T04:40:33.529Z,6.16
2019-03-15T04:45:57.950Z,6.06
2019-03-15T04:51:22.232Z,6.06
2019-03-15T04:56:46.080Z,6.04
2019-03-15T05:02:09.800Z,5.99
2019-03-15T05:07:33.326Z,5.94
2019-03-15T05:12:57.366Z,5.83
2019-03-15T05:18:21.950Z,5.78
2019-03-15T05:23:46.650Z,5.85
2019-03-15T05:29:10.436Z,5.79
2019-03-15T05:34:34.368Z,5.85
2019-03-15T05:39:58.983Z,5.76
2019-03-15T05:45:23.998Z,5.75
2019-03-15T05:50:48.627Z,5.78
2019-03-15T05:56:12.312Z,6.01
2019-03-15T06:01:36.467Z,6.16
2019-03-15T06:07:00.109Z,6.09
2019-03-15T06:12:24.531Z,6.11
2019-03-15T06:17:48.216Z,6.09
2019-03-15T06:23:12.266Z,5.88
2019-03-15T06:28:36.476Z,5.78
2019-03-15T06:34:01.208Z,5.88
2019-03-15T06:39:24.794Z,6.02
2019-03-15T06:44:58.049Z,6.11
2019-03-15T06:50:14.728Z,6.22
2019-03-15T06:55:38.529Z,6.32
2019-03-15T07:01:02.930Z,6.39
2019-03-15T07:06:27.115Z,6.56
2019-03-15T07:11:50.943Z,6.51
2019-03-15T07:17:15.735Z,6.52
2019-03-15T07:22:39.351Z,6.61
2019-03-15T07:28:03.267Z,6.70
2019-03-15T07:33:27.900Z,6.80
2019-03-15T07:38:52.675Z,7.02
2019-03-15T07:44:17.263Z,7.24
2019-03-15T07:49:40.965Z,7.37
2019-03-15T07:55:06.174Z,7.54
2019-03-15T08:00:29.915Z,7.61
2019-03-15T08:05:53.794Z,7.83
2019-03-15T08:11:18.690Z,7.69
2019-03-15T08:16:43.597Z,8.12
2019-03-15T08:22:07.988Z,8.34
2019-03-15T08:27:31.785Z,7.92
2019-03-15T08:33:09.253Z,7.94
2019-03-15T08:38:21.879Z,8.15
2019-03-15T08:43:46.175Z,7.95
2019-03-15T08:49:10.854Z,8.00
2019-03-15T08:54:35.706Z,8.04
2019-03-15T09:00:00.644Z,8.39
2019-03-15T09:05:26.071Z,8.48
2019-03-15T09:10:50.028Z,8.27
2019-03-15T09:16:13.793Z,8.17
2019-03-15T09:21:38.785Z,8.33
2019-03-15T09:27:02.884Z,8.36
2019-03-15T09:32:27.394Z,9.06
2019-03-15T09:37:52.300Z,9.25
2019-03-15T09:43:16.304Z,9.44
2019-03-15T09:48:43.632Z,9.03
2019-03-15T09:54:06.875Z,9.39
2019-03-15T09:59:30.776Z,9.41
2019-03-15T10:04:55.518Z,9.31
2019-03-15T10:10:20.516Z,9.31
2019-03-15T10:15:44.690Z,9.42
2019-03-15T10:21:09.440Z,9.62
2019-03-15T10:26:34.182Z,10.70
2019-03-15T10:31:58.935Z,10.72
2019-03-15T10:37:22.662Z,10.62
2019-03-15T10:42:46.214Z,10.53
2019-03-15T10:48:09.936Z,10.26
2019-03-15T10:53:33.943Z,9.87
2019-03-15T10:58:58.481Z,9.80
2019-03-15T11:04:23.252Z,9.55
2019-03-15T11:09:48.580Z,9.52
2019-03-15T11:15:12.322Z,9.65
2019-03-15T11:20:37.258Z,10.06
2019-03-15T11:26:13.083Z,10.15
2019-03-15T11:31:28.103Z,10.25
2019-03-15T11:36:58.146Z,10.43
2019-03-15T11:42:18.050Z,10.20
2019-03-15T11:48:01.260Z,10.89
2019-03-15T11:53:08.115Z,10.68
2019-03-15T11:58:32.036Z,10.33
2019-03-15T12:03:56.463Z,10.40
2019-03-15T12:09:22.131Z,11.31
2019-03-15T12:14:47.056Z,10.68
2019-03-15T12:20:11.621Z,10.45
2019-03-15T12:25:37.288Z,10.21
2019-03-15T12:31:01.559Z,9.83
2019-03-15T12:36:26.051Z,9.86
2019-03-15T12:41:50.916Z,9.56
2019-03-15T12:47:14.727Z,10.00
2019-03-15T12:52:47.291Z,9.83
2019-03-15T12:58:05.485Z,9.48
2019-03-15T13:03:29.670Z,9.37
2019-03-15T13:08:53.749Z,9.33
2019-03-15T13:14:17.605Z,9.20
2019-03-15T13:19:54.159Z,9.61
2019-03-15T13:25:08.156Z,9.45
2019-03-15T13:30:32.397Z,9.40
2019-03-15T13:35:57.326Z,8.93
2019-03-15T13:41:21.600Z,8.79
2019-03-15T13:46:46.261Z,8.71
2019-03-15T13:52:11.145Z,8.50
2019-03-15T13:57:35.703Z,8.33
2019-03-15T14:03:00.345Z,8.31
2019-03-15T14:08:25.786Z,8.10
2019-03-15T14:13:50.123Z,7.89
2019-03-15T14:19:14.811Z,7.47
2019-03-15T14:24:39.412Z,7.30
2019-03-15T14:30:03.344Z,7.33
2019-03-15T14:35:28.393Z,7.28
2019-03-15T14:40:52.361Z,7.18
2019-03-15T14:46:17.244Z,7.05
2019-03-15T14:51:40.851Z,7.00
2019-03-15T14:57:04.844Z,7.01
2019-03-15T15:02:28.551Z,7.06
2019-03-15T15:07:52.862Z,6.98
2019-03-15T15:13:17.692Z,6.94
2019-03-15T15:18:42.096Z,7.01
2019-03-15T15:24:07.155Z,7.02
2019-03-15T15:29:30.879Z,7.03
2019-03-15T15:34:54.790Z,7.17
2019-03-15T15:40:19.287Z,7.35
2019-03-15T15:45:44.077Z,7.58
2019-03-15T15:51:08.971Z,7.62
2019-03-15T15:56:32.835Z,7.66
2019-03-15T16:01:57.066Z,7.86
2019-03-15T16:07:21.804Z,8.12
2019-03-15T16:12:45.685Z,8.27
2019-03-15T16:18:09.564Z,8.34
2019-03-15T16:23:34.222Z,8.34
2019-03-15T16:28:58.889Z,8.33
2019-03-15T16:34:22.693Z,8.42
2019-03-15T16:39:47.040Z,8.54
2019-03-15T16:45:15.255Z,8.53
2019-03-15T16:50:38.948Z,8.63
2019-03-15T16:56:03.772Z,8.56
2019-03-15T17:01:28.704Z,8.44
2019-03-15T17:06:52.503Z,8.35
2019-03-15T17:12:16.867Z,8.25
2019-03-15T17:17:41.289Z,8.54
2019-03-15T17:23:05.879Z,8.65
2019-03-15T17:28:30.409Z,8.65
2019-03-15T17:33:54.270Z,8.69
2019-03-15T17:39:18.057Z,8.67
2019-03-15T17:44:42.767Z,8.81
2019-03-15T17:50:09.065Z,8.97
2019-03-15T17:55:33.488Z,9.08
2019-03-15T18:00:58.282Z,9.29
2019-03-15T18:06:23.121Z,9.30
2019-03-15T18:11:47.229Z,9.18
2019-03-15T18:17:11.018Z,9.18
2019-03-15T18:22:35.777Z,9.12
2019-03-15T18:27:59.646Z,9.13
2019-03-15T18:33:24.411Z,9.09
2019-03-15T18:38:48.053Z,8.92
2019-03-15T18:44:12.760Z,8.97
2019-03-15T18:49:37.319Z,9.09
2019-03-15T18:55:02.042Z,8.95
2019-03-15T19:00:25.776Z,8.98
2019-03-15T19:05:50.459Z,8.91
2019-03-15T19:11:16.142Z,9.08
2019-03-15T19:16:41.016Z,9.15
2019-03-15T19:22:06.540Z,9.22
2019-03-15T19:27:30.175Z,9.25
2019-03-15T19:32:54.235Z,9.15
2019-03-15T19:38:18.511Z,9.05
2019-03-15T19:43:43.333Z,8.94
2019-03-15T19:49:06.889Z,8.81
2019-03-15T19:54:32.139Z,8.60
2019-03-15T20:00:07.069Z,8.31
2019-03-15T20:05:22.223Z,8.48
2019-03-15T20:10:47.065Z,8.49
2019-03-15T20:16:11.466Z,8.36
2019-03-15T20:21:36.290Z,8.22
2019-03-15T20:27:19.727Z,8.04
2019-03-15T20:32:44.165Z,8.08
2019-03-15T20:38:08.721Z,8.08
2019-03-15T20:43:32.537Z,7.89
2019-03-15T20:48:57.431Z,7.83
2019-03-15T20:54:22.439Z,7.91
2019-03-15T20:59:46.923Z,7.96
2019-03-15T21:05:11.783Z,7.76
2019-03-15T21:11:09.732Z,7.73
2019-03-15T21:16:33.492Z,7.75
2019-03-15T21:21:57.594Z,7.64
2019-03-15T21:27:21.630Z,7.63
2019-03-15T21:32:46.538Z,7.62
2019-03-15T21:44:41.757Z,7.45
2019-03-15T21:50:07.886Z,7.36
2019-03-15T21:55:32.372Z,7.37
2019-03-15T22:01:02.708Z,7.29
2019-03-15T22:06:23.123Z,7.27
2019-03-15T22:11:47.230Z,7.25
2019-03-15T22:17:11.923Z,7.03
2019-03-15T22:22:36.736Z,7.18
2019-03-15T22:28:00.798Z,7.18
2019-03-15T22:33:25.063Z,7.15
2019-03-15T22:38:49.418Z,7.07
2019-03-15T22:44:14.214Z,7.03
2019-03-15T22:49:38.757Z,7.00
2019-03-15T22:55:02.425Z,6.97
2019-03-15T23:00:30.196Z,6.92
2019-03-15T23:05:55.627Z,6.93
2019-03-15T23:11:20.316Z,6.95
2019-03-15T23:16:44.840Z,6.98
2019-03-15T23:22:08.964Z,6.74
2019-03-15T23:27:33.520Z,6.72
2019-03-15T23:32:57.112Z,6.77
2019-03-15T23:38:21.774Z,6.83
2019-03-15T23:43:46.619Z,6.78
2019-03-15T23:49:10.871Z,6.67
2019-03-15T23:54:35.840Z,6.80
2019-03-15T23:59:59.518Z,6.69
